Time;durP1;ratioP1;P1;durP2;ratioP2;P2;SDS_P1;SDS_P2;PMS_P1;PMS_P2;Temp;Humidity;BMP_temperature;BMP_pressure;BME280_temperature;BME280_humidity;BME280_pressure;Samples;Min_cycle;Max_cycle;Signal;HPM_P1;HPM_P2
2021/06/07 00:01:40;;;;;;;;;;;;;;;20.22;63.14;99857.22;4291589;33;35945;-96
2021/06/07 00:04:28;;;;;;;;;;;;;;;20.22;63.33;99846.25;4295667;33;32099;-96
2021/06/07 00:07:03;;;;;;;;;;;;;;;20.15;63.85;99855.72;4292726;33;33193;-96
2021/06/07 00:09:54;;;;;;;;;;;;;;;20.29;63.38;99852.41;4276591;33;33914;-94
2021/06/07 00:12:26;;;;;;;;;;;;;;;20.03;64.72;99850.28;4262986;33;32706;-96
2021/06/07 00:15:18;;;;;;;;;;;;;;;20.12;64.66;99857.06;4307234;33;32003;-93
2021/06/07 00:17:51;;;;;;;;;;;;;;;20.09;64.63;99857.56;4290082;33;34377;-96
2021/06/07 00:20:51;;;;;;;;;;;;;;;20.30;63.72;99858.75;4292170;33;33977;-92
2021/06/07 00:23:25;;;;;;;;;;;;;;;20.08;64.65;99859.47;4275127;33;34982;-92
2021/06/07 00:25:58;;;;;;;;;;;;;;;20.02;64.17;99862.38;4300840;33;32682;-96
2021/06/07 00:28:32;;;;;;;;;;;;;;;20.27;63.77;99862.00;4276920;33;32440;-96
2021/06/07 00:31:21;;;;;;;;;;;;;;;20.09;64.40;99866.63;4293051;33;34387;-96
2021/06/07 00:33:57;;;;;;;;;;;;;;;20.11;64.18;99866.38;4281124;33;33288;-96
2021/06/07 00:36:44;;;;;;;;;;;;;;;20.20;63.87;99864.06;4307427;33;31186;-91
2021/06/07 00:39:17;;;;;;;;;;;;;;;20.14;64.21;99862.31;4305047;33;34169;-96
2021/06/07 00:42:31;;;;;;;;;;;;;;;20.20;64.00;99864.06;4199595;33;34972;-91
2021/06/07 00:45:08;;;;;;;;;;;;;;;20.21;63.85;99861.06;4288162;33;35098;-91
2021/06/07 00:47:41;;;;;;;;;;;;;;;20.14;64.25;99865.88;4290474;33;33822;-91
2021/06/07 00:50:23;;;;;;;;;;;;;;;20.15;64.23;99862.06;4276535;33;34461;-96
2021/06/07 00:53:19;;;;;;;;;;;;;;;20.09;64.36;99860.31;4283112;33;34787;-96
2021/06/07 00:55:57;;;;;;;;;;;;;;;19.93;64.87;99860.00;4293749;33;34389;-96
2021/06/07 00:59:00;;;;;;;;;;;;;;;19.88;64.82;99857.19;4274693;33;33227;-92
2021/06/07 01:02:09;;;;;;;;;;;;;;;20.06;64.12;99852.53;4271304;33;35547;-96
2021/06/07 01:05:04;;;;;;;;;;;;;;;19.88;63.94;99846.22;4312073;33;36452;-96
2021/06/07 01:07:37;;;;;;;;;;;;;;;19.63;65.29;99851.19;4298676;33;34841;-92
2021/06/07 01:10:10;;;;;;;;;;;;;;;19.69;65.08;99847.47;4301407;33;33796;-96
2021/06/07 01:12:55;;;;;;;;;;;;;;;19.58;65.10;99852.75;4297723;33;33139;-92
2021/06/07 01:15:32;;;;;;;;;;;;;;;19.58;64.83;99855.50;4301201;33;33811;-96
2021/06/07 01:18:07;;;;;;;;;;;;;;;19.69;64.33;99852.97;4300549;33;34439;-92
2021/06/07 01:20:40;;;;;;;;;;;;;;;19.60;64.46;99854.44;4302088;33;33498;-96
2021/06/07 01:23:32;;;;;;;;;;;;;;;19.59;64.27;99853.56;4299629;33;35785;-92
2021/06/07 01:26:25;;;;;;;;;;;;;;;19.31;65.38;99852.50;4298671;33;36235;-96
2021/06/07 01:29:10;;;;;;;;;;;;;;;19.06;66.24;99852.78;4302473;33;34488;-91
2021/06/07 01:31:42;;;;;;;;;;;;;;;19.17;65.87;99851.09;4291734;33;33765;-91
2021/06/07 01:34:15;;;;;;;;;;;;;;;19.18;65.55;99848.09;4292843;33;34813;-92
2021/06/07 01:36:48;;;;;;;;;;;;;;;19.33;64.61;99855.00;4304938;33;34748;-96
2021/06/07 01:39:27;;;;;;;;;;;;;;;19.17;65.16;99857.38;4277312;33;32829;-96
2021/06/07 01:42:45;;;;;;;;;;;;;;;19.05;65.59;99854.66;4295012;33;33719;-95
2021/06/07 01:45:41;;;;;;;;;;;;;;;18.93;65.85;99848.37;4286620;33;34679;-96
2021/06/07 01:51:48;;;;;;;;;;;;;;;18.77;66.01;99863.63;4294532;33;35357;-92
2021/06/07 01:54:22;;;;;;;;;;;;;;;18.81;65.79;99856.56;4292438;33;36475;-96
2021/06/07 01:56:57;;;;;;;;;;;;;;;18.82;65.65;99860.16;4280246;33;32124;-96
2021/06/07 01:59:43;;;;;;;;;;;;;;;18.68;65.90;99859.56;4335596;27;34063;-91
2021/06/07 02:02:15;;;;;;;;;;;;;;;18.63;65.86;99857.53;4345495;33;32935;-93
2021/06/07 02:05:00;;;;;;;;;;;;;;;18.47;66.41;99853.63;4347511;33;33059;-95
2021/06/07 02:07:56;;;;;;;;;;;;;;;18.61;66.12;99853.38;4331131;33;32765;-96
2021/06/07 02:10:55;;;;;;;;;;;;;;;18.70;65.99;99854.69;4175459;33;36183;-91
2021/06/07 02:13:28;;;;;;;;;;;;;;;18.76;65.70;99850.13;4344573;33;33961;-96
2021/06/07 02:16:17;;;;;;;;;;;;;;;18.61;66.05;99858.88;4324701;33;33625;-91
2021/06/07 02:18:51;;;;;;;;;;;;;;;18.61;66.04;99853.38;4335078;32;33976;-96
2021/06/07 02:21:44;;;;;;;;;;;;;;;18.41;66.63;99854.53;4297820;33;33402;-97
2021/06/07 02:24:27;;;;;;;;;;;;;;;18.39;66.42;99851.22;4298023;33;32961;-96
2021/06/07 02:27:29;;;;;;;;;;;;;;;18.51;65.67;99853.97;4299738;33;33384;-93
2021/06/07 02:30:08;;;;;;;;;;;;;;;18.29;66.46;99853.69;4290749;33;34103;-96
2021/06/07 02:32:58;;;;;;;;;;;;;;;18.23;66.54;99860.94;4252247;33;33327;-92
2021/06/07 02:35:31;;;;;;;;;;;;;;;17.82;68.26;99857.13;4258493;33;33568;-96
2021/06/07 02:38:19;;;;;;;;;;;;;;;18.00;67.56;99859.00;4279342;33;32491;-93
2021/06/07 02:40:51;;;;;;;;;;;;;;;17.85;68.14;99856.66;4299626;33;35261;-93
2021/06/07 02:43:24;;;;;;;;;;;;;;;18.02;67.66;99865.06;4299741;33;33869;-96
2021/06/07 02:45:57;;;;;;;;;;;;;;;17.98;67.87;99866.59;4279196;33;32579;-93
2021/06/07 02:48:31;;;;;;;;;;;;;;;17.93;68.15;99858.25;4303896;33;33666;-96
2021/06/07 02:51:06;;;;;;;;;;;;;;;18.14;67.08;99859.62;4289660;33;34758;-94
2021/06/07 02:53:56;;;;;;;;;;;;;;;17.81;68.44;99860.91;4303373;33;34191;-93
2021/06/07 02:57:05;;;;;;;;;;;;;;;17.52;69.28;99860.69;4290326;33;37867;-96
2021/06/07 02:59:55;;;;;;;;;;;;;;;17.53;69.92;99864.25;4302013;33;34453;-96
2021/06/07 03:02:44;;;;;;;;;;;;;;;17.66;69.49;99869.53;4317479;33;33173;-96
2021/06/07 03:05:33;;;;;;;;;;;;;;;17.96;68.27;99863.25;4284147;33;34075;-93
2021/06/07 03:08:06;;;;;;;;;;;;;;;17.82;68.81;99879.00;4272517;33;33950;-96
2021/06/07 03:11:06;;;;;;;;;;;;;;;18.02;68.28;99869.69;4292729;33;38028;-96
2021/06/07 03:13:39;;;;;;;;;;;;;;;18.37;66.73;99872.53;4281303;33;32358;-92
2021/06/07 03:16:12;;;;;;;;;;;;;;;18.28;66.76;99876.66;4276343;33;36512;-96
2021/06/07 03:18:48;;;;;;;;;;;;;;;18.25;67.26;99883.44;4288188;33;33741;-96
2021/06/07 03:21:35;;;;;;;;;;;;;;;18.18;67.91;99875.31;4304222;33;32199;-96
2021/06/07 03:24:08;;;;;;;;;;;;;;;18.21;67.64;99886.87;4277118;33;34468;-93
2021/06/07 03:26:41;;;;;;;;;;;;;;;18.43;67.15;99885.25;4287570;33;34541;-96
2021/06/07 03:29:14;;;;;;;;;;;;;;;18.57;66.71;99880.38;4275492;33;34631;-96
2021/06/07 03:32:03;;;;;;;;;;;;;;;18.52;67.38;99877.53;4303125;33;34203;-91
2021/06/07 03:34:38;;;;;;;;;;;;;;;18.30;66.90;99885.47;4291811;33;35474;-96
2021/06/07 03:37:25;;;;;;;;;;;;;;;18.25;67.69;99888.06;4305795;33;34424;-96
2021/06/07 03:39:57;;;;;;;;;;;;;;;18.49;67.37;99887.03;4281051;33;34235;-96
2021/06/07 03:42:50;;;;;;;;;;;;;;;18.51;67.50;99886.81;4295740;33;31913;-90
2021/06/07 03:45:46;;;;;;;;;;;;;;;18.78;66.55;99886.34;4291021;33;32672;-89
2021/06/07 03:48:19;;;;;;;;;;;;;;;18.90;66.55;99880.91;4306014;33;34970;-96
2021/06/07 03:50:52;;;;;;;;;;;;;;;18.82;66.89;99885.63;4281045;33;34035;-96
2021/06/07 03:53:40;;;;;;;;;;;;;;;18.88;66.56;99878.41;4310106;33;33454;-96
2021/06/07 03:56:14;;;;;;;;;;;;;;;19.01;66.54;99877.31;4308664;33;32482;-89
2021/06/07 03:58:53;;;;;;;;;;;;;;;19.14;65.82;99877.06;4322382;33;33784;-96
2021/06/07 04:01:55;;;;;;;;;;;;;;;19.41;65.15;99876.50;4283838;33;32340;-90
2021/06/07 04:04:29;;;;;;;;;;;;;;;19.30;65.93;99878.22;4296651;33;33571;-89
2021/06/07 04:07:02;;;;;;;;;;;;;;;19.36;66.16;99877.25;4290665;33;34719;-96
2021/06/07 04:09:42;;;;;;;;;;;;;;;19.60;65.79;99877.19;4283007;33;33693;-89
2021/06/07 04:12:15;;;;;;;;;;;;;;;19.52;66.20;99872.94;4276663;33;34698;-90
2021/06/07 04:14:49;;;;;;;;;;;;;;;19.68;65.94;99870.47;4302430;33;33964;-91
2021/06/07 04:17:21;;;;;;;;;;;;;;;19.67;66.13;99872.41;4290786;33;34699;-90
2021/06/07 04:19:54;;;;;;;;;;;;;;;19.76;66.02;99867.34;4285507;33;33308;-89
2021/06/07 04:22:27;;;;;;;;;;;;;;;19.88;65.48;99870.06;4287670;33;33632;-96
2021/06/07 04:25:17;;;;;;;;;;;;;;;19.99;65.51;99869.16;4290641;33;34214;-89
2021/06/07 04:27:50;;;;;;;;;;;;;;;20.08;65.63;99867.69;4303872;33;34143;-90
2021/06/07 04:30:23;;;;;;;;;;;;;;;20.10;65.88;99870.19;4293228;33;33712;-96
2021/06/07 04:33:21;;;;;;;;;;;;;;;20.13;66.02;99869.69;4278677;33;33849;-95
2021/06/07 04:36:23;;;;;;;;;;;;;;;20.10;66.40;99871.03;4260681;33;31974;-92
2021/06/07 04:39:31;;;;;;;;;;;;;;;20.16;66.66;99871.09;4282992;33;19988;-96
2021/06/07 04:42:27;;;;;;;;;;;;;;;20.35;66.18;99872.53;4286121;33;34170;-93
2021/06/07 04:45:06;;;;;;;;;;;;;;;20.41;66.11;99870.72;4267817;33;32938;-92
2021/06/07 04:47:39;;;;;;;;;;;;;;;20.50;66.51;99880.19;4284811;33;32924;-91
2021/06/07 04:50:13;;;;;;;;;;;;;;;20.57;66.73;99875.38;4260740;33;35527;-96
2021/06/07 04:53:00;;;;;;;;;;;;;;;20.74;66.29;99880.03;4271937;33;34793;-91
2021/06/07 04:55:34;;;;;;;;;;;;;;;21.03;65.50;99888.16;4258936;33;35248;-96
2021/06/07 04:58:26;;;;;;;;;;;;;;;20.95;65.89;99886.66;4252091;33;31970;-90
2021/06/07 05:01:02;;;;;;;;;;;;;;;21.26;65.13;99887.09;4251333;33;34998;-96
2021/06/07 05:03:56;;;;;;;;;;;;;;;21.42;64.66;99890.88;4261914;33;34207;-96
2021/06/07 05:06:28;;;;;;;;;;;;;;;21.47;64.09;99890.94;4259377;33;34214;-95
2021/06/07 05:09:14;;;;;;;;;;;;;;;21.57;63.47;99891.09;4272039;33;33990;-96
2021/06/07 05:11:59;;;;;;;;;;;;;;;21.66;62.61;99892.31;4272659;33;34304;-90
2021/06/07 05:14:32;;;;;;;;;;;;;;;21.74;61.91;99896.50;4268879;33;33833;-96
2021/06/07 05:17:04;;;;;;;;;;;;;;;21.75;61.37;99894.59;4241372;33;33636;-95
2021/06/07 05:19:50;;;;;;;;;;;;;;;22.03;61.54;99902.59;4252218;33;33661;-96
2021/06/07 05:22:23;;;;;;;;;;;;;;;22.12;61.05;99894.69;4268882;33;34140;-96
2021/06/07 05:25:09;;;;;;;;;;;;;;;22.22;61.65;99896.72;4265384;33;32371;-96
2021/06/07 05:27:57;;;;;;;;;;;;;;;22.39;61.31;99889.22;4306627;33;32695;-96
2021/06/07 05:30:45;;;;;;;;;;;;;;;22.61;60.99;99893.78;4306422;33;33198;-89
2021/06/07 05:33:18;;;;;;;;;;;;;;;22.63;61.44;99893.53;4294877;33;34341;-96
2021/06/07 05:36:05;;;;;;;;;;;;;;;22.68;60.21;99888.03;4290924;33;35324;-89
2021/06/07 05:38:37;;;;;;;;;;;;;;;22.67;61.00;99889.16;4315059;33;33944;-95
2021/06/07 05:41:41;;;;;;;;;;;;;;;22.62;60.48;99895.47;4226353;33;35148;-96
2021/06/07 05:44:14;;;;;;;;;;;;;;;22.88;60.46;99895.63;4287113;33;34181;-89
2021/06/07 05:46:47;;;;;;;;;;;;;;;23.05;59.40;99901.81;4289160;33;33968;-96
2021/06/07 05:49:20;;;;;;;;;;;;;;;23.30;59.13;99893.97;4278155;33;34157;-96
2021/06/07 05:52:11;;;;;;;;;;;;;;;23.34;57.78;99904.19;4286518;33;32436;-89
2021/06/07 05:54:50;;;;;;;;;;;;;;;23.51;57.48;99901.22;4304632;33;34813;-96
2021/06/07 05:58:24;;;;;;;;;;;;;;;23.74;58.03;99905.47;4295387;33;20031;-93
2021/06/07 06:01:21;;;;;;;;;;;;;;;23.37;57.67;99909.19;4508991;27;33619;31
2021/06/07 06:07:11;;;;;;;;;;;;;;;23.56;57.30;99906.78;4811817;27;20058;-93
2021/06/07 06:19:34;;;;;;;;;;;;;;;24.10;55.37;99915.78;4960695;27;19961;31
2021/06/07 06:22:07;;;;;;;;;;;;;;;23.86;54.84;99918.22;4317976;33;33129;-91
2021/06/07 06:24:40;;;;;;;;;;;;;;;24.23;53.98;99923.53;4317013;33;34356;-92
2021/06/07 06:27:13;;;;;;;;;;;;;;;24.32;54.33;99923.81;4557345;27;33156;-92
2021/06/07 06:30:04;;;;;;;;;;;;;;;24.31;55.31;99922.16;4297492;33;34017;-93
2021/06/07 06:32:41;;;;;;;;;;;;;;;24.32;54.73;99918.31;4509182;27;34186;-96
2021/06/07 06:35:20;;;;;;;;;;;;;;;24.56;56.23;99920.53;4679794;27;33813;-91
2021/06/07 06:37:54;;;;;;;;;;;;;;;24.18;56.80;99922.69;4390222;27;33947;-91
2021/06/07 06:40:28;;;;;;;;;;;;;;;23.99;57.29;99923.22;4383877;27;32892;-92
2021/06/07 06:43:04;;;;;;;;;;;;;;;24.09;55.91;99914.16;4329487;33;33611;-92
2021/06/07 06:48:47;;;;;;;;;;;;;;;23.89;54.35;99920.44;4303725;33;20044;-92
2021/06/07 06:51:20;;;;;;;;;;;;;;;24.29;53.95;99922.44;4275158;33;34712;-92
2021/06/07 07:00:46;;;;;;;;;;;;;;;24.70;51.16;99918.91;4332407;31;20051;-95
2021/06/07 07:03:21;;;;;;;;;;;;;;;25.00;52.24;99922.72;4406560;27;34760;-93
2021/06/07 07:09:21;;;;;;;;;;;;;;;25.60;49.24;99933.09;4307001;33;34413;-96
2021/06/07 07:15:37;;;;;;;;;;;;;;;25.68;47.48;99930.56;4244181;33;34894;-93
2021/06/07 07:18:11;;;;;;;;;;;;;;;26.34;47.10;99919.44;4233797;33;33835;-93
2021/06/07 07:20:43;;;;;;;;;;;;;;;26.43;48.71;99926.00;4218426;33;36554;-93
2021/06/07 07:23:22;;;;;;;;;;;;;;;26.67;50.29;99928.88;4210541;33;33914;-96
2021/06/07 07:26:11;;;;;;;;;;;;;;;26.73;46.26;99929.66;4216959;33;34792;-96
2021/06/07 07:29:03;;;;;;;;;;;;;;;26.86;47.95;99940.09;4242701;33;32974;-93
2021/06/07 07:31:35;;;;;;;;;;;;;;;27.23;44.99;99935.84;4276115;33;34461;-92
2021/06/07 07:34:09;;;;;;;;;;;;;;;27.33;42.10;99931.31;4279798;33;33246;-96
2021/06/07 07:37:08;;;;;;;;;;;;;;;27.19;43.57;99932.00;4311244;28;34481;-94
2021/06/07 07:39:41;;;;;;;;;;;;;;;27.03;43.10;99933.28;4291193;33;34429;-96
2021/06/07 07:42:22;;;;;;;;;;;;;;;26.93;44.72;99937.81;4297438;33;32727;-96
2021/06/07 07:45:19;;;;;;;;;;;;;;;27.46;43.45;99934.22;4624323;28;33046;31
2021/06/07 07:48:16;;;;;;;;;;;;;;;27.52;40.10;99934.97;4233484;33;35170;-91
2021/06/07 07:50:50;;;;;;;;;;;;;;;27.78;39.98;99927.13;4313218;28;34785;-96
2021/06/07 07:56:33;;;;;;;;;;;;;;;27.65;39.69;99934.25;4304879;33;32974;-93
2021/06/07 07:59:10;;;;;;;;;;;;;;;28.33;37.16;99940.56;4278579;33;33983;-96
2021/06/07 08:02:19;;;;;;;;;;;;;;;28.11;36.15;99935.59;4309377;33;32929;-94
2021/06/07 08:04:52;;;;;;;;;;;;;;;28.83;36.36;99928.09;4330660;33;33749;-94
2021/06/07 08:07:24;;;;;;;;;;;;;;;28.67;37.47;99931.16;4319911;33;32736;-96
2021/06/07 08:10:27;;;;;;;;;;;;;;;29.13;36.18;99935.06;4322086;27;33803;-96
2021/06/07 08:13:31;;;;;;;;;;;;;;;29.04;35.62;99939.69;4360194;27;20022;-94
2021/06/07 08:16:13;;;;;;;;;;;;;;;29.24;35.33;99938.53;4449262;27;33231;-94
2021/06/07 08:18:46;;;;;;;;;;;;;;;29.45;35.67;99938.94;4581084;27;32906;-93
2021/06/07 08:28:33;;;;;;;;;;;;;;;29.61;32.32;99936.66;4387155;27;20020;-92
2021/06/07 08:31:06;;;;;;;;;;;;;;;29.86;35.25;99938.09;4300007;28;31255;-92
2021/06/07 08:33:43;;;;;;;;;;;;;;;29.77;33.05;99940.75;4458164;27;34142;31
2021/06/07 08:36:43;;;;;;;;;;;;;;;30.00;33.36;99938.09;4389454;27;19996;-96
2021/06/07 08:39:50;;;;;;;;;;;;;;;29.41;32.32;99944.28;4426595;27;34268;31
2021/06/07 08:42:24;;;;;;;;;;;;;;;29.54;31.45;99936.25;4481506;27;33171;-94
2021/06/07 08:45:22;;;;;;;;;;;;;;;29.49;32.60;99939.13;4463289;27;32072;-95
2021/06/07 08:51:36;;;;;;;;;;;;;;;29.91;32.69;99934.38;4557823;27;33968;-92
2021/06/07 08:54:19;;;;;;;;;;;;;;;30.06;33.67;99931.25;4314487;33;31648;-95
2021/06/07 08:56:54;;;;;;;;;;;;;;;30.39;32.26;99935.78;4377375;27;32695;-93
2021/06/07 08:59:30;;;;;;;;;;;;;;;30.70;31.95;99927.50;4608479;27;34190;-95
2021/06/07 09:05:30;;;;;;;;;;;;;;;30.09;33.50;99922.28;4307691;33;32117;-92
2021/06/07 09:08:07;;;;;;;;;;;;;;;30.46;32.95;99933.41;4286655;33;33408;-92
2021/06/07 09:10:47;;;;;;;;;;;;;;;30.48;32.67;99930.31;4297843;33;33738;-96
2021/06/07 09:13:59;;;;;;;;;;;;;;;30.92;31.30;99923.06;4424499;27;19996;31
2021/06/07 09:16:47;;;;;;;;;;;;;;;31.02;30.88;99928.41;4324049;27;34292;-94
2021/06/07 09:19:23;;;;;;;;;;;;;;;30.39;31.68;99930.22;4300740;33;35402;-95
2021/06/07 09:22:50;;;;;;;;;;;;;;;29.86;32.69;99924.19;4343884;27;35700;-95
2021/06/07 09:25:29;;;;;;;;;;;;;;;29.29;33.85;99920.91;4371193;27;35209;-93
2021/06/07 09:28:05;;;;;;;;;;;;;;;29.13;32.64;99925.91;4367491;27;33394;-92
2021/06/07 09:34:08;;;;;;;;;;;;;;;29.65;31.44;99925.72;4433253;27;33785;-96
2021/06/07 09:37:15;;;;;;;;;;;;;;;29.63;31.49;99917.69;4395092;27;33974;-96
2021/06/07 09:40:22;;;;;;;;;;;;;;;30.27;32.39;99914.03;4336094;27;34625;-89
2021/06/07 09:43:27;;;;;;;;;;;;;;;30.67;31.39;99913.41;4318922;27;20400;-95
2021/06/07 09:46:20;;;;;;;;;;;;;;;31.00;31.22;99913.94;4406165;27;36042;-96
2021/06/07 09:49:32;;;;;;;;;;;;;;;31.57;30.16;99909.59;4322896;32;34938;-92
2021/06/07 09:52:44;;;;;;;;;;;;;;;31.24;31.27;99912.72;4483851;27;20027;-96
2021/06/07 09:55:38;;;;;;;;;;;;;;;30.07;32.64;99915.34;4443327;27;33919;-90
2021/06/07 09:58:20;;;;;;;;;;;;;;;29.69;31.78;99905.31;4325540;33;35221;-95
2021/06/07 10:00:55;;;;;;;;;;;;;;;29.33;32.98;99903.28;4326063;33;33407;-96
2021/06/07 10:03:49;;;;;;;;;;;;;;;28.99;33.96;99904.44;4209585;27;848802;-89
2021/06/07 10:06:43;;;;;;;;;;;;;;;28.86;33.46;99905.25;4318876;33;35394;-93
2021/06/07 10:09:19;;;;;;;;;;;;;;;28.84;34.40;99907.53;4306414;33;34834;-92
2021/06/07 10:12:16;;;;;;;;;;;;;;;29.12;34.91;99900.03;4283015;33;34904;-94
2021/06/07 10:15:37;;;;;;;;;;;;;;;28.48;35.15;99899.78;4310077;33;20028;-96
2021/06/07 10:18:41;;;;;;;;;;;;;;;27.95;36.94;99904.44;4362024;27;33284;-96
2021/06/07 10:21:57;;;;;;;;;;;;;;;28.19;37.16;99895.22;4174441;33;35541;-90
2021/06/07 10:24:35;;;;;;;;;;;;;;;28.92;35.16;99897.62;4289569;28;34400;-96
2021/06/07 10:27:24;;;;;;;;;;;;;;;29.44;35.54;99897.50;4316376;33;34679;-96
2021/06/07 10:30:13;;;;;;;;;;;;;;;29.85;32.84;99897.47;4314953;33;35499;-91
2021/06/07 10:32:45;;;;;;;;;;;;;;;29.47;33.73;99894.91;4328183;32;34648;-89
2021/06/07 10:35:37;;;;;;;;;;;;;;;29.28;32.59;99899.75;4316321;33;34343;-92
2021/06/07 10:38:12;;;;;;;;;;;;;;;29.31;32.42;99894.41;4312800;33;34060;-91
2021/06/07 10:40:49;;;;;;;;;;;;;;;29.73;35.36;99895.19;4332067;33;33028;-96
2021/06/07 10:43:28;;;;;;;;;;;;;;;30.28;31.63;99897.00;4339559;27;33176;-96
2021/06/07 10:46:25;;;;;;;;;;;;;;;29.81;33.68;99893.66;4265703;33;34544;-94
2021/06/07 10:49:20;;;;;;;;;;;;;;;30.37;34.17;99897.06;4451171;27;31745;-92
2021/06/07 10:52:28;;;;;;;;;;;;;;;30.80;34.40;99892.97;4330881;33;33971;-96
2021/06/07 10:55:26;;;;;;;;;;;;;;;30.93;29.22;99894.00;4410103;27;33724;31
2021/06/07 10:58:15;;;;;;;;;;;;;;;31.23;28.83;99877.59;4391361;27;33835;31
2021/06/07 11:01:02;;;;;;;;;;;;;;;32.12;30.34;99877.47;4295938;33;32861;-92
2021/06/07 11:03:37;;;;;;;;;;;;;;;32.75;29.12;99882.69;4321311;33;33809;-93
2021/06/07 11:06:10;;;;;;;;;;;;;;;32.24;30.88;99868.44;4313698;33;34365;-96
2021/06/07 11:09:04;;;;;;;;;;;;;;;32.80;30.25;99868.50;4352705;27;32978;-92
2021/06/07 11:11:41;;;;;;;;;;;;;;;33.46;28.07;99867.25;4302360;33;34961;-91
2021/06/07 11:14:14;;;;;;;;;;;;;;;33.82;28.14;99869.53;4311691;33;34009;-96
2021/06/07 11:17:11;;;;;;;;;;;;;;;33.37;26.78;99872.88;4329298;33;34496;-96
2021/06/07 11:19:51;;;;;;;;;;;;;;;33.16;26.41;99859.66;4309260;33;34294;-96
2021/06/07 11:23:05;;;;;;;;;;;;;;;32.64;26.70;99851.44;4335051;27;33355;-92
2021/06/07 11:25:49;;;;;;;;;;;;;;;33.53;27.36;99848.75;4305598;33;34359;-96
2021/06/07 11:28:29;;;;;;;;;;;;;;;34.14;25.85;99850.28;4304802;33;33796;-96
2021/06/07 11:31:17;;;;;;;;;;;;;;;34.80;25.16;99854.28;4428808;27;34672;-96
2021/06/07 11:33:51;;;;;;;;;;;;;;;34.86;26.83;99861.31;4329751;27;33104;-96
2021/06/07 11:36:46;;;;;;;;;;;;;;;35.06;26.88;99858.75;4311700;33;34614;-95
2021/06/07 11:39:53;;;;;;;;;;;;;;;35.23;26.52;99861.34;4382440;27;36579;-91
2021/06/07 11:42:27;;;;;;;;;;;;;;;35.21;26.35;99863.66;4314395;33;33994;-91
2021/06/07 11:48:45;;;;;;;;;;;;;;;34.22;26.19;99863.37;4484672;27;30735;-90
2021/06/07 11:51:28;;;;;;;;;;;;;;;34.29;28.26;99863.69;4338996;33;34701;-91
2021/06/07 11:54:20;;;;;;;;;;;;;;;32.99;29.98;99859.72;4337844;33;33914;-93
2021/06/07 11:56:53;;;;;;;;;;;;;;;32.46;30.78;99857.06;4338924;27;33941;-92
2021/06/07 11:59:32;;;;;;;;;;;;;;;32.92;29.84;99849.03;4470889;27;33770;-96
2021/06/07 12:02:24;;;;;;;;;;;;;;;34.45;27.39;99849.03;4367633;27;34827;-92
2021/06/07 12:05:13;;;;;;;;;;;;;;;33.33;27.64;99844.75;4328244;33;33394;-94
2021/06/07 12:07:54;;;;;;;;;;;;;;;32.81;27.19;99837.38;4320662;33;33171;-94
2021/06/07 12:10:27;;;;;;;;;;;;;;;32.71;26.24;99835.78;4331207;33;34654;-93
2021/06/07 12:13:14;;;;;;;;;;;;;;;33.72;28.59;99842.69;4297447;33;35078;-94
2021/06/07 12:15:55;;;;;;;;;;;;;;;34.17;24.72;99838.38;4319159;33;33744;-95
2021/06/07 12:19:00;;;;;;;;;;;;;;;34.79;25.91;99830.19;4318412;33;34071;-96
2021/06/07 12:21:37;;;;;;;;;;;;;;;35.67;25.04;99830.63;4328839;33;34142;-95
2021/06/07 12:24:15;;;;;;;;;;;;;;;36.58;24.57;99828.44;4317849;33;34723;-94
2021/06/07 12:29:42;;;;;;;;;;;;;;;34.87;23.80;99820.84;4325301;33;33565;-94
2021/06/07 12:32:35;;;;;;;;;;;;;;;34.73;24.49;99825.94;4397839;27;34553;31
2021/06/07 12:35:13;;;;;;;;;;;;;;;35.53;24.48;99821.78;4302755;33;33704;-91
2021/06/07 12:41:04;;;;;;;;;;;;;;;37.39;21.18;99810.34;4279294;33;33419;-91
2021/06/07 12:43:46;;;;;;;;;;;;;;;37.52;21.15;99802.56;4389357;27;34627;-96
2021/06/07 12:47:07;;;;;;;;;;;;;;;;;;;;;
2021/06/07 12:50:14;;;;;;;;;;;;;;;36.17;22.94;99805.16;4723678;27;20006;-92
2021/06/07 12:52:48;;;;;;;;;;;;;;;35.44;25.58;99805.06;4306566;33;32920;-91
2021/06/07 12:55:23;;;;;;;;;;;;;;;35.24;25.31;99805.97;4280658;33;34402;-94
2021/06/07 12:58:29;;;;;;;;;;;;;;;34.78;24.91;99800.50;4267009;33;34526;-94
2021/06/07 13:01:13;;;;;;;;;;;;;;;34.51;25.71;99793.50;4334302;33;32996;-96
2021/06/07 13:04:31;;;;;;;;;;;;;;;34.35;24.05;99804.59;4331784;27;31765;31
2021/06/07 13:07:15;;;;;;;;;;;;;;;33.99;24.75;99806.88;4293584;33;34310;-91
2021/06/07 13:09:51;;;;;;;;;;;;;;;33.86;25.99;99806.00;4288174;33;33273;-91
2021/06/07 13:12:24;;;;;;;;;;;;;;;34.22;24.22;99807.31;4300124;33;34143;-92
2021/06/07 13:14:57;;;;;;;;;;;;;;;34.30;24.59;99802.84;4301922;33;33396;-92
2021/06/07 13:17:32;;;;;;;;;;;;;;;35.14;25.69;99796.06;4289822;33;33529;-90
2021/06/07 13:20:15;;;;;;;;;;;;;;;35.49;22.77;99796.38;4300599;33;33939;-93
2021/06/07 13:23:51;;;;;;;;;;;;;;;35.31;24.80;99804.25;4257060;33;20010;-96
2021/06/07 13:26:47;;;;;;;;;;;;;;;35.18;23.13;99792.19;4212705;33;33832;-96
2021/06/07 13:29:31;;;;;;;;;;;;;;;34.85;25.24;99800.72;4229487;33;35917;-89
2021/06/07 13:32:35;;;;;;;;;;;;;;;35.14;25.61;99790.44;4233106;33;33692;-93
2021/06/07 13:35:21;;;;;;;;;;;;;;;35.53;25.73;99785.25;4457781;27;33481;31
2021/06/07 13:37:56;;;;;;;;;;;;;;;35.92;22.90;99791.25;4279922;33;32972;-95
2021/06/07 13:41:11;;;;;;;;;;;;;;;35.79;21.47;99775.59;4286063;33;20033;-94
2021/06/07 13:43:54;;;;;;;;;;;;;;;35.77;23.11;99763.88;4264733;33;35307;-96
2021/06/07 13:47:27;;;;;;;;;;;;;;;35.11;23.45;99768.69;4253789;33;20001;-92
2021/06/07 13:50:05;;;;;;;;;;;;;;;35.13;24.05;99766.34;4236995;33;33614;-94
2021/06/07 13:52:43;;;;;;;;;;;;;;;35.27;27.09;99761.22;4239156;33;33907;-92
2021/06/07 13:55:24;;;;;;;;;;;;;;;35.70;23.82;99758.84;4269487;33;33237;-92
2021/06/07 13:58:00;;;;;;;;;;;;;;;35.98;22.14;99758.88;4257865;33;34211;-91
2021/06/07 14:00:38;;;;;;;;;;;;;;;35.93;24.00;99759.16;4269101;33;32250;-93
2021/06/07 14:03:16;;;;;;;;;;;;;;;35.98;23.17;99756.06;4271598;33;35345;-96
2021/06/07 14:06:08;;;;;;;;;;;;;;;35.78;23.71;99754.28;4275810;33;35099;-92
2021/06/07 14:08:42;;;;;;;;;;;;;;;34.45;26.41;99760.09;4283263;33;34254;-96
2021/06/07 14:11:19;;;;;;;;;;;;;;;34.34;27.43;99752.47;4268949;33;33852;-96
2021/06/07 14:14:13;;;;;;;;;;;;;;;34.49;26.58;99748.97;4275907;33;33276;-94
2021/06/07 14:16:49;;;;;;;;;;;;;;;34.80;26.24;99748.44;4274147;33;34916;-95
2021/06/07 14:19:31;;;;;;;;;;;;;;;34.76;27.15;99741.06;4263820;33;34378;-95
2021/06/07 14:25:00;;;;;;;;;;;;;;;34.05;25.92;99737.44;4305271;33;34203;-96
2021/06/07 14:28:01;;;;;;;;;;;;;;;34.27;27.37;99737.03;4272898;33;34853;-96
2021/06/07 14:30:51;;;;;;;;;;;;;;;34.27;26.50;99741.84;4274056;33;33252;-96
2021/06/07 14:33:28;;;;;;;;;;;;;;;34.60;26.68;99729.72;4284516;33;33765;-96
2021/06/07 14:36:17;;;;;;;;;;;;;;;34.24;25.73;99729.28;4288859;33;34712;-95
2021/06/07 14:38:53;;;;;;;;;;;;;;;34.35;27.74;99731.69;4289011;33;33183;-96
2021/06/07 14:41:39;;;;;;;;;;;;;;;34.49;26.76;99726.53;4329319;33;32697;-96
2021/06/07 14:44:11;;;;;;;;;;;;;;;34.44;26.50;99718.37;4307530;33;32455;-95
2021/06/07 14:47:04;;;;;;;;;;;;;;;34.80;27.37;99713.97;4309713;33;35308;-96
2021/06/07 14:49:38;;;;;;;;;;;;;;;34.93;25.39;99707.16;4289808;33;34378;-96
2021/06/07 14:52:24;;;;;;;;;;;;;;;34.72;25.87;99707.28;4283937;33;33203;-96
2021/06/07 14:54:58;;;;;;;;;;;;;;;34.19;26.73;99711.87;4293181;33;32878;-95
2021/06/07 14:57:47;;;;;;;;;;;;;;;33.61;26.95;99709.81;4321884;33;34155;-95
2021/06/07 15:00:21;;;;;;;;;;;;;;;34.01;26.69;99700.84;4310481;33;34248;-94
2021/06/07 15:02:55;;;;;;;;;;;;;;;33.74;28.10;99713.50;4287443;33;35586;-94
2021/06/07 15:05:31;;;;;;;;;;;;;;;33.85;28.28;99703.50;4300437;33;34505;-94
2021/06/07 15:08:07;;;;;;;;;;;;;;;33.81;29.46;99712.94;4289044;33;32642;-94
2021/06/07 15:10:49;;;;;;;;;;;;;;;33.18;29.99;99708.16;4299540;33;34849;-96
2021/06/07 15:14:08;;;;;;;;;;;;;;;33.15;28.59;99701.25;4312767;33;34363;-96
2021/06/07 15:17:11;;;;;;;;;;;;;;;32.59;27.79;99697.75;4298868;33;33049;-96
2021/06/07 15:20:31;;;;;;;;;;;;;;;32.65;29.24;99700.03;4257949;33;32765;-94
2021/06/07 15:23:34;;;;;;;;;;;;;;;32.98;29.56;99699.38;4272494;33;34871;-96
2021/06/07 15:26:56;;;;;;;;;;;;;;;32.36;28.41;99686.84;4267461;33;32557;-96